sensor_id;sensor_type;location;lat;lon;timestamp;pressure;altitude;pressure_sealevel;temperature;humidity
66479;BME280;53294;47.912;13.526;2023-03-21T00:00:41;96394.47;;;9.11;65.44
66479;BME280;53294;47.912;13.526;2023-03-21T00:03:07;96398.31;;;9.00;66.29
66479;BME280;53294;47.912;13.526;2023-03-21T00:05:39;96398.91;;;8.92;66.65
66479;BME280;53294;47.912;13.526;2023-03-21T00:08:07;96399.34;;;9.04;65.92
66479;BME280;53294;47.912;13.526;2023-03-21T00:10:34;96390.38;;;8.85;66.97
66479;BME280;53294;47.912;13.526;2023-03-21T00:13:10;96389.78;;;8.93;66.12
66479;BME280;53294;47.912;13.526;2023-03-21T00:15:39;96391.59;;;9.03;65.62
66479;BME280;53294;47.912;13.526;2023-03-21T00:18:31;96389.03;;;9.22;64.77
66479;BME280;53294;47.912;13.526;2023-03-21T00:20:59;96380.44;;;9.20;64.91
66479;BME280;53294;47.912;13.526;2023-03-21T00:23:46;96376.38;;;9.27;64.44
66479;BME280;53294;47.912;13.526;2023-03-21T00:26:13;96381.63;;;9.08;65.10
66479;BME280;53294;47.912;13.526;2023-03-21T00:28:41;96373.34;;;9.05;65.65
66479;BME280;53294;47.912;13.526;2023-03-21T00:31:09;96376.22;;;9.13;65.12
66479;BME280;53294;47.912;13.526;2023-03-21T00:33:36;96368.88;;;9.24;64.61
66479;BME280;53294;47.912;13.526;2023-03-21T00:36:05;96375.09;;;9.20;64.75
66479;BME280;53294;47.912;13.526;2023-03-21T00:38:33;96372.66;;;9.23;64.88
66479;BME280;53294;47.912;13.526;2023-03-21T00:41:03;96362.38;;;9.36;64.38
66479;BME280;53294;47.912;13.526;2023-03-21T00:43:48;96365.50;;;9.43;64.13
66479;BME280;53294;47.912;13.526;2023-03-21T00:46:15;96359.97;;;9.34;64.67
66479;BME280;53294;47.912;13.526;2023-03-21T00:48:42;96356.66;;;9.42;64.41
66479;BME280;53294;47.912;13.526;2023-03-21T00:51:20;96355.47;;;9.53;64.47
66479;BME280;53294;47.912;13.526;2023-03-21T00:53:56;96356.00;;;9.56;64.14
66479;BME280;53294;47.912;13.526;2023-03-21T00:56:23;96347.00;;;9.46;64.39
66479;BME280;53294;47.912;13.526;2023-03-21T00:58:50;96345.44;;;9.40;64.63
66479;BME280;53294;47.912;13.526;2023-03-21T01:01:18;96340.03;;;9.45;64.47
66479;BME280;53294;47.912;13.526;2023-03-21T01:03:44;96335.16;;;9.47;64.44
66479;BME280;53294;47.912;13.526;2023-03-21T01:06:13;96350.19;;;9.48;64.46
66479;BME280;53294;47.912;13.526;2023-03-21T01:08:46;96344.34;;;9.41;64.50
66479;BME280;53294;47.912;13.526;2023-03-21T01:11:23;96336.81;;;9.43;64.30
66479;BME280;53294;47.912;13.526;2023-03-21T01:13:51;96335.69;;;9.49;64.25
66479;BME280;53294;47.912;13.526;2023-03-21T01:16:30;96335.91;;;9.53;64.08
66479;BME280;53294;47.912;13.526;2023-03-21T01:18:57;96333.53;;;9.51;64.22
66479;BME280;53294;47.912;13.526;2023-03-21T01:21:25;96338.94;;;9.46;64.49
66479;BME280;53294;47.912;13.526;2023-03-21T01:23:51;96343.16;;;9.52;64.35
66479;BME280;53294;47.912;13.526;2023-03-21T01:26:18;96328.94;;;9.52;64.38
66479;BME280;53294;47.912;13.526;2023-03-21T01:28:45;96332.44;;;9.52;64.52
66479;BME280;53294;47.912;13.526;2023-03-21T01:31:14;96330.78;;;9.57;64.31
66479;BME280;53294;47.912;13.526;2023-03-21T01:33:41;96324.84;;;9.60;64.06
66479;BME280;53294;47.912;13.526;2023-03-21T01:36:15;96331.25;;;9.64;64.44
66479;BME280;53294;47.912;13.526;2023-03-21T01:38:42;96331.03;;;9.60;64.23
66479;BME280;53294;47.912;13.526;2023-03-21T01:41:30;96328.78;;;9.67;64.39
66479;BME280;53294;47.912;13.526;2023-03-21T01:44:17;96323.94;;;9.45;65.01
66479;BME280;53294;47.912;13.526;2023-03-21T01:46:46;96317.53;;;9.41;65.27
66479;BME280;53294;47.912;13.526;2023-03-21T01:49:37;96322.09;;;9.41;65.27
66479;BME280;53294;47.912;13.526;2023-03-21T01:52:13;96313.97;;;9.22;66.03
66479;BME280;53294;47.912;13.526;2023-03-21T01:55:00;96314.44;;;9.29;65.87
66479;BME280;53294;47.912;13.526;2023-03-21T01:57:32;96312.69;;;9.43;65.21
66479;BME280;53294;47.912;13.526;2023-03-21T02:00:13;96313.16;;;9.50;64.77
66479;BME280;53294;47.912;13.526;2023-03-21T02:02:43;96309.88;;;9.53;64.58
66479;BME280;53294;47.912;13.526;2023-03-21T02:05:22;96307.22;;;9.29;65.74
66479;BME280;53294;47.912;13.526;2023-03-21T02:07:51;96308.66;;;9.16;66.20
66479;BME280;53294;47.912;13.526;2023-03-21T02:10:18;96304.84;;;9.23;65.75
66479;BME280;53294;47.912;13.526;2023-03-21T02:12:45;96305.31;;;9.30;65.30
66479;BME280;53294;47.912;13.526;2023-03-21T02:15:13;96302.56;;;9.35;65.20
66479;BME280;53294;47.912;13.526;2023-03-21T02:26:26;96299.16;;;9.53;64.31
66479;BME280;53294;47.912;13.526;2023-03-21T02:37:58;96291.13;;;9.00;67.19
66479;BME280;53294;47.912;13.526;2023-03-21T02:41:22;96294.81;;;9.09;66.60
66479;BME280;53294;47.912;13.526;2023-03-21T02:46:27;96287.06;;;9.32;64.90
66479;BME280;53294;47.912;13.526;2023-03-21T02:49:14;96282.75;;;9.36;64.70
66479;BME280;53294;47.912;13.526;2023-03-21T02:51:43;96280.56;;;9.38;64.58
66479;BME280;53294;47.912;13.526;2023-03-21T02:54:15;96278.41;;;9.40;64.78
66479;BME280;53294;47.912;13.526;2023-03-21T02:57:01;96287.19;;;9.22;65.24
66479;BME280;53294;47.912;13.526;2023-03-21T02:59:30;96281.91;;;9.11;65.58
66479;BME280;53294;47.912;13.526;2023-03-21T03:02:01;96279.59;;;9.29;64.84
66479;BME280;53294;47.912;13.526;2023-03-21T03:04:28;96280.06;;;9.36;64.52
66479;BME280;53294;47.912;13.526;2023-03-21T03:20:39;96270.88;;;9.42;64.59
66479;BME280;53294;47.912;13.526;2023-03-21T03:26:22;96272.59;;;9.33;65.05
66479;BME280;53294;47.912;13.526;2023-03-21T03:28:55;96273.16;;;9.30;65.09
66479;BME280;53294;47.912;13.526;2023-03-21T03:31:27;96273.09;;;9.35;64.96
66479;BME280;53294;47.912;13.526;2023-03-21T03:33:59;96272.22;;;9.40;64.64
66479;BME280;53294;47.912;13.526;2023-03-21T03:36:32;96273.63;;;9.37;64.98
66479;BME280;53294;47.912;13.526;2023-03-21T03:39:07;96278.72;;;9.33;64.96
66479;BME280;53294;47.912;13.526;2023-03-21T03:42:05;96279.66;;;9.48;64.60
66479;BME280;53294;47.912;13.526;2023-03-21T03:44:52;96281.13;;;9.35;64.45
66479;BME280;53294;47.912;13.526;2023-03-21T03:47:36;96277.38;;;9.36;64.91
66479;BME280;53294;47.912;13.526;2023-03-21T03:50:23;96283.25;;;9.38;64.67
66479;BME280;53294;47.912;13.526;2023-03-21T03:52:56;96274.13;;;9.39;64.50
66479;BME280;53294;47.912;13.526;2023-03-21T03:55:32;96278.16;;;9.37;64.67
66479;BME280;53294;47.912;13.526;2023-03-21T03:58:00;96274.28;;;9.24;65.27
66479;BME280;53294;47.912;13.526;2023-03-21T04:00:32;96277.25;;;9.22;65.44
66479;BME280;53294;47.912;13.526;2023-03-21T04:02:59;96275.41;;;9.18;65.73
66479;BME280;53294;47.912;13.526;2023-03-21T04:05:26;96275.41;;;9.18;65.65
66479;BME280;53294;47.912;13.526;2023-03-21T04:07:53;96271.66;;;9.19;65.64
66479;BME280;53294;47.912;13.526;2023-03-21T04:10:20;96267.88;;;9.20;65.54
66479;BME280;53294;47.912;13.526;2023-03-21T04:12:48;96260.31;;;9.27;65.35
66479;BME280;53294;47.912;13.526;2023-03-21T04:15:15;96263.00;;;9.27;65.15
66479;BME280;53294;47.912;13.526;2023-03-21T04:17:42;96266.44;;;9.32;65.25
66479;BME280;53294;47.912;13.526;2023-03-21T04:20:10;96267.78;;;9.30;64.85
66479;BME280;53294;47.912;13.526;2023-03-21T04:22:51;96263.47;;;9.34;64.93
66479;BME280;53294;47.912;13.526;2023-03-21T04:25:19;96262.94;;;9.32;64.86
66479;BME280;53294;47.912;13.526;2023-03-21T04:27:58;96264.59;;;9.28;65.00
66479;BME280;53294;47.912;13.526;2023-03-21T04:30:25;96261.88;;;9.33;64.85
66479;BME280;53294;47.912;13.526;2023-03-21T04:32:51;96270.66;;;9.39;64.69
66479;BME280;53294;47.912;13.526;2023-03-21T04:35:23;96269.84;;;9.38;64.69
66479;BME280;53294;47.912;13.526;2023-03-21T04:37:50;96260.72;;;9.39;64.47
66479;BME280;53294;47.912;13.526;2023-03-21T04:40:17;96266.13;;;9.10;65.75
66479;BME280;53294;47.912;13.526;2023-03-21T04:42:45;96263.56;;;9.24;65.29
66479;BME280;53294;47.912;13.526;2023-03-21T04:45:14;96260.59;;;9.25;65.07
66479;BME280;53294;47.912;13.526;2023-03-21T04:47:41;96267.22;;;9.33;64.68
66479;BME280;53294;47.912;13.526;2023-03-21T04:50:09;96270.41;;;9.35;64.72
66479;BME280;53294;47.912;13.526;2023-03-21T04:52:36;96266.16;;;9.34;64.75
66479;BME280;53294;47.912;13.526;2023-03-21T04:55:03;96266.19;;;9.29;64.99
66479;BME280;53294;47.912;13.526;2023-03-21T04:57:29;96266.75;;;9.26;65.03
66479;BME280;53294;47.912;13.526;2023-03-21T04:59:56;96273.66;;;9.08;65.92
66479;BME280;53294;47.912;13.526;2023-03-21T05:02:23;96269.13;;;9.03;66.20
66479;BME280;53294;47.912;13.526;2023-03-21T05:04:49;96272.84;;;9.07;65.92
66479;BME280;53294;47.912;13.526;2023-03-21T05:07:16;96272.69;;;9.23;65.28
66479;BME280;53294;47.912;13.526;2023-03-21T05:09:43;96268.94;;;9.24;65.20
66479;BME280;53294;47.912;13.526;2023-03-21T05:12:09;96261.09;;;9.27;64.97
66479;BME280;53294;47.912;13.526;2023-03-21T05:14:36;96269.16;;;9.27;65.07
66479;BME280;53294;47.912;13.526;2023-03-21T05:17:03;96267.25;;;9.04;66.06
66479;BME280;53294;47.912;13.526;2023-03-21T05:19:31;96271.88;;;8.69;67.90
66479;BME280;53294;47.912;13.526;2023-03-21T05:22:04;96275.31;;;8.30;69.89
66479;BME280;53294;47.912;13.526;2023-03-21T05:24:32;96268.00;;;8.40;69.48
66479;BME280;53294;47.912;13.526;2023-03-21T05:27:00;96278.13;;;8.54;68.66
66479;BME280;53294;47.912;13.526;2023-03-21T05:29:28;96276.03;;;8.40;69.12
66479;BME280;53294;47.912;13.526;2023-03-21T05:31:56;96282.44;;;8.50;68.56
66479;BME280;53294;47.912;13.526;2023-03-21T05:34:24;96282.34;;;8.20;70.62
66479;BME280;53294;47.912;13.526;2023-03-21T05:36:50;96283.81;;;7.97;71.72
66479;BME280;53294;47.912;13.526;2023-03-21T05:39:17;96279.22;;;8.08;71.03
66479;BME280;53294;47.912;13.526;2023-03-21T05:41:44;96273.31;;;8.51;68.77
66479;BME280;53294;47.912;13.526;2023-03-21T05:44:11;96274.25;;;8.70;67.86
66479;BME280;53294;47.912;13.526;2023-03-21T05:46:37;96271.03;;;8.73;67.60
66479;BME280;53294;47.912;13.526;2023-03-21T05:49:04;96274.69;;;8.83;67.15
66479;BME280;53294;47.912;13.526;2023-03-21T05:51:30;96273.03;;;8.87;66.88
66479;BME280;53294;47.912;13.526;2023-03-21T05:53:57;96271.16;;;8.87;66.71
66479;BME280;53294;47.912;13.526;2023-03-21T05:56:24;96274.56;;;8.98;66.33
66479;BME280;53294;47.912;13.526;2023-03-21T05:58:50;96272.47;;;8.90;66.50
66479;BME280;53294;47.912;13.526;2023-03-21T06:01:17;96273.00;;;8.92;66.55
66479;BME280;53294;47.912;13.526;2023-03-21T06:03:44;96269.72;;;9.00;66.10
66479;BME280;53294;47.912;13.526;2023-03-21T06:06:11;96276.06;;;9.04;65.74
66479;BME280;53294;47.912;13.526;2023-03-21T06:08:38;96271.81;;;9.03;65.50
66479;BME280;53294;47.912;13.526;2023-03-21T06:11:06;96272.09;;;9.02;65.32
66479;BME280;53294;47.912;13.526;2023-03-21T06:13:38;96270.91;;;9.13;65.47
66479;BME280;53294;47.912;13.526;2023-03-21T06:16:04;96278.59;;;9.20;65.52
66479;BME280;53294;47.912;13.526;2023-03-21T06:18:31;96269.44;;;9.26;65.23
66479;BME280;53294;47.912;13.526;2023-03-21T06:20:58;96268.84;;;9.34;64.92
66479;BME280;53294;47.912;13.526;2023-03-21T06:23:24;96285.34;;;9.41;65.19
66479;BME280;53294;47.912;13.526;2023-03-21T06:25:51;96280.13;;;9.31;65.73
66479;BME280;53294;47.912;13.526;2023-03-21T06:28:18;96285.34;;;9.41;65.56
66479;BME280;53294;47.912;13.526;2023-03-21T06:30:44;96288.59;;;9.38;66.29
66479;BME280;53294;47.912;13.526;2023-03-21T06:33:11;96289.00;;;9.50;65.94
66479;BME280;53294;47.912;13.526;2023-03-21T06:35:38;96287.25;;;9.65;65.60
66479;BME280;53294;47.912;13.526;2023-03-21T06:38:05;96290.38;;;9.72;65.66
66479;BME280;53294;47.912;13.526;2023-03-21T06:40:32;96283.34;;;9.76;65.67
66479;BME280;53294;47.912;13.526;2023-03-21T06:42:59;96287.88;;;9.81;65.89
66479;BME280;53294;47.912;13.526;2023-03-21T06:45:25;96288.72;;;9.76;66.34
66479;BME280;53294;47.912;13.526;2023-03-21T06:47:52;96290.75;;;9.84;66.25
66479;BME280;53294;47.912;13.526;2023-03-21T06:50:19;96288.00;;;9.89;66.47
66479;BME280;53294;47.912;13.526;2023-03-21T06:52:45;96285.78;;;9.97;66.35
66479;BME280;53294;47.912;13.526;2023-03-21T06:55:12;96290.56;;;10.00;66.13
66479;BME280;53294;47.912;13.526;2023-03-21T06:57:39;96290.00;;;10.03;66.35
66479;BME280;53294;47.912;13.526;2023-03-21T07:00:06;96282.59;;;9.95;67.12
66479;BME280;53294;47.912;13.526;2023-03-21T07:02:34;96290.56;;;10.00;67.41
66479;BME280;53294;47.912;13.526;2023-03-21T07:05:00;96285.94;;;10.24;66.63
66479;BME280;53294;47.912;13.526;2023-03-21T07:07:27;96284.34;;;10.04;67.94
66479;BME280;53294;47.912;13.526;2023-03-21T07:09:55;96282.91;;;10.12;68.37
66479;BME280;53294;47.912;13.526;2023-03-21T07:12:22;96276.56;;;10.03;68.56
66479;BME280;53294;47.912;13.526;2023-03-21T07:14:49;96274.28;;;10.34;68.06
66479;BME280;53294;47.912;13.526;2023-03-21T07:17:15;96272.00;;;10.60;67.04
66479;BME280;53294;47.912;13.526;2023-03-21T07:19:42;96270.25;;;10.70;65.79
66479;BME280;53294;47.912;13.526;2023-03-21T07:22:10;96269.50;;;10.83;65.94
66479;BME280;53294;47.912;13.526;2023-03-21T07:24:36;96268.56;;;11.07;65.60
66479;BME280;53294;47.912;13.526;2023-03-21T07:27:03;96268.59;;;11.35;65.68
66479;BME280;53294;47.912;13.526;2023-03-21T07:29:30;96268.59;;;11.35;65.67
66479;BME280;53294;47.912;13.526;2023-03-21T07:31:56;96265.41;;;11.32;65.76
66479;BME280;53294;47.912;13.526;2023-03-21T07:34:23;96273.06;;;11.11;65.46
66479;BME280;53294;47.912;13.526;2023-03-21T07:36:50;96273.13;;;10.92;66.41
66479;BME280;53294;47.912;13.526;2023-03-21T07:39:17;96263.22;;;11.35;65.48
66479;BME280;53294;47.912;13.526;2023-03-21T07:41:45;96266.22;;;11.47;65.41
66479;BME280;53294;47.912;13.526;2023-03-21T07:44:12;96265.03;;;11.39;65.50
66479;BME280;53294;47.912;13.526;2023-03-21T07:46:39;96271.97;;;11.82;64.51
66479;BME280;53294;47.912;13.526;2023-03-21T07:49:06;96273.09;;;11.67;64.02
66479;BME280;53294;47.912;13.526;2023-03-21T07:51:34;96275.38;;;11.46;64.41
66479;BME280;53294;47.912;13.526;2023-03-21T07:54:01;96268.31;;;11.78;63.76
66479;BME280;53294;47.912;13.526;2023-03-21T07:56:28;96259.97;;;12.16;63.57
66479;BME280;53294;47.912;13.526;2023-03-21T07:58:54;96266.91;;;12.45;61.70
66479;BME280;53294;47.912;13.526;2023-03-21T08:01:21;96258.69;;;12.72;61.90
66479;BME280;53294;47.912;13.526;2023-03-21T08:03:48;96261.13;;;12.83;60.83
66479;BME280;53294;47.912;13.526;2023-03-21T08:06:16;96257.81;;;13.08;59.91
66479;BME280;53294;47.912;13.526;2023-03-21T08:08:43;96260.06;;;13.46;58.36
66479;BME280;53294;47.912;13.526;2023-03-21T08:11:10;96254.25;;;13.31;59.13
66479;BME280;53294;47.912;13.526;2023-03-21T08:13:37;96257.03;;;13.97;58.54
66479;BME280;53294;47.912;13.526;2023-03-21T08:16:04;96257.34;;;14.04;58.61
66479;BME280;53294;47.912;13.526;2023-03-21T08:18:31;96251.50;;;14.54;57.13
66479;BME280;53294;47.912;13.526;2023-03-21T08:20:58;96248.31;;;14.87;55.14
66479;BME280;53294;47.912;13.526;2023-03-21T08:23:25;96253.59;;;14.75;55.00
66479;BME280;53294;47.912;13.526;2023-03-21T08:25:53;96245.00;;;14.73;56.11
66479;BME280;53294;47.912;13.526;2023-03-21T08:28:21;96258.03;;;14.80;55.24
66479;BME280;53294;47.912;13.526;2023-03-21T08:30:49;96240.97;;;14.97;54.67
66479;BME280;53294;47.912;13.526;2023-03-21T08:33:15;96251.09;;;15.17;53.40
66479;BME280;53294;47.912;13.526;2023-03-21T08:35:44;96249.91;;;15.44;53.45
66479;BME280;53294;47.912;13.526;2023-03-21T08:38:12;96240.72;;;15.67;53.50
66479;BME280;53294;47.912;13.526;2023-03-21T08:40:39;96244.53;;;15.66;53.33
66479;BME280;53294;47.912;13.526;2023-03-21T08:43:06;96241.16;;;15.39;53.46
66479;BME280;53294;47.912;13.526;2023-03-21T08:45:33;96249.41;;;15.51;53.43
66479;BME280;53294;47.912;13.526;2023-03-21T08:48:00;96245.16;;;15.41;54.18
66479;BME280;53294;47.912;13.526;2023-03-21T08:50:26;96241.09;;;15.56;53.48
66479;BME280;53294;47.912;13.526;2023-03-21T08:52:54;96244.31;;;15.88;53.05
66479;BME280;53294;47.912;13.526;2023-03-21T08:55:21;96253.06;;;16.15;52.76
66479;BME280;53294;47.912;13.526;2023-03-21T08:57:48;96253.91;;;16.07;51.50
66479;BME280;53294;47.912;13.526;2023-03-21T09:00:16;96250.72;;;16.05;51.27
66479;BME280;53294;47.912;13.526;2023-03-21T09:02:44;96244.72;;;16.20;51.25
66479;BME280;53294;47.912;13.526;2023-03-21T09:05:12;96247.03;;;16.30;50.00
66479;BME280;53294;47.912;13.526;2023-03-21T09:07:39;96250.75;;;16.26;51.21
66479;BME280;53294;47.912;13.526;2023-03-21T09:10:09;96242.31;;;16.61;50.51
66479;BME280;53294;47.912;13.526;2023-03-21T09:12:50;96246.88;;;16.90;48.98
66479;BME280;53294;47.912;13.526;2023-03-21T09:15:18;96244.88;;;16.99;48.45
66479;BME280;53294;47.912;13.526;2023-03-21T09:17:47;96238.59;;;17.20;47.21
66479;BME280;53294;47.912;13.526;2023-03-21T09:20:19;96239.22;;;16.92;49.33
66479;BME280;53294;47.912;13.526;2023-03-21T09:22:52;96239.59;;;16.82;49.17
66479;BME280;53294;47.912;13.526;2023-03-21T09:25:19;96239.31;;;16.75;49.62
66479;BME280;53294;47.912;13.526;2023-03-21T09:27:47;96241.19;;;16.83;46.87
66479;BME280;53294;47.912;13.526;2023-03-21T09:30:18;96240.03;;;16.84;48.06
66479;BME280;53294;47.912;13.526;2023-03-21T09:32:45;96236.22;;;16.51;45.15
66479;BME280;53294;47.912;13.526;2023-03-21T09:35:15;96237.19;;;16.47;47.24
66479;BME280;53294;47.912;13.526;2023-03-21T09:37:47;96235.22;;;16.68;45.40
66479;BME280;53294;47.912;13.526;2023-03-21T09:40:18;96229.25;;;16.96;46.90
66479;BME280;53294;47.912;13.526;2023-03-21T09:45:20;96235.91;;;16.86;45.15
66479;BME280;53294;47.912;13.526;2023-03-21T09:47:52;96225.91;;;17.12;45.61
66479;BME280;53294;47.912;13.526;2023-03-21T09:50:23;96221.41;;;17.16;46.26
66479;BME280;53294;47.912;13.526;2023-03-21T09:52:59;96215.78;;;17.58;44.33
66479;BME280;53294;47.912;13.526;2023-03-21T09:55:30;96214.41;;;17.64;44.13
66479;BME280;53294;47.912;13.526;2023-03-21T10:03:48;96213.44;;;16.98;44.38
66479;BME280;53294;47.912;13.526;2023-03-21T10:06:19;96214.16;;;17.08;44.89
66479;BME280;53294;47.912;13.526;2023-03-21T10:08:53;96207.38;;;17.38;44.72
66479;BME280;53294;47.912;13.526;2023-03-21T10:11:33;96204.44;;;17.19;43.47
66479;BME280;53294;47.912;13.526;2023-03-21T10:14:35;96205.28;;;16.65;44.90
66479;BME280;53294;47.912;13.526;2023-03-21T10:19:38;96203.22;;;16.83;44.24
66479;BME280;53294;47.912;13.526;2023-03-21T10:22:05;96191.94;;;16.93;43.49
66479;BME280;53294;47.912;13.526;2023-03-21T10:24:32;96193.81;;;17.38;43.93
66479;BME280;53294;47.912;13.526;2023-03-21T10:27:01;96181.94;;;17.68;44.08
66479;BME280;53294;47.912;13.526;2023-03-21T10:29:40;96176.44;;;18.17;43.59
66479;BME280;53294;47.912;13.526;2023-03-21T10:32:14;96180.53;;;17.86;42.83
66479;BME280;53294;47.912;13.526;2023-03-21T10:34:47;96173.66;;;18.01;43.30
66479;BME280;53294;47.912;13.526;2023-03-21T10:37:16;96172.19;;;18.32;44.78
66479;BME280;53294;47.912;13.526;2023-03-21T10:39:46;96170.75;;;18.79;41.23
66479;BME280;53294;47.912;13.526;2023-03-21T10:42:23;96164.63;;;18.98;42.26
66479;BME280;53294;47.912;13.526;2023-03-21T10:44:53;96164.09;;;19.40;40.71
66479;BME280;53294;47.912;13.526;2023-03-21T10:47:24;96167.44;;;19.81;38.98
66479;BME280;53294;47.912;13.526;2023-03-21T10:49:52;96160.56;;;20.07;40.73
66479;BME280;53294;47.912;13.526;2023-03-21T10:52:34;96161.13;;;20.55;37.42
66479;BME280;53294;47.912;13.526;2023-03-21T10:57:45;96167.41;;;20.98;38.79
66479;BME280;53294;47.912;13.526;2023-03-21T11:00:19;96157.47;;;21.10;37.85
66479;BME280;53294;47.912;13.526;2023-03-21T11:02:49;96156.53;;;21.48;38.03
66479;BME280;53294;47.912;13.526;2023-03-21T11:07:46;96150.63;;;21.69;36.56
66479;BME280;53294;47.912;13.526;2023-03-21T11:10:24;96145.78;;;21.86;37.19
66479;BME280;53294;47.912;13.526;2023-03-21T11:12:56;96147.41;;;22.21;35.71
66479;BME280;53294;47.912;13.526;2023-03-21T11:15:33;96138.84;;;22.22;33.74
66479;BME280;53294;47.912;13.526;2023-03-21T11:18:26;96137.25;;;22.21;35.38
66479;BME280;53294;47.912;13.526;2023-03-21T11:21:01;96134.06;;;21.85;36.37
66479;BME280;53294;47.912;13.526;2023-03-21T11:23:30;96130.63;;;22.53;34.67
66479;BME280;53294;47.912;13.526;2023-03-21T11:26:01;96121.53;;;22.83;34.49
66479;BME280;53294;47.912;13.526;2023-03-21T11:28:36;96125.44;;;22.82;32.96
66479;BME280;53294;47.912;13.526;2023-03-21T11:31:04;96113.91;;;23.06;34.80
66479;BME280;53294;47.912;13.526;2023-03-21T11:33:36;96110.78;;;23.04;34.73
66479;BME280;53294;47.912;13.526;2023-03-21T11:38:55;96111.84;;;22.51;33.37
66479;BME280;53294;47.912;13.526;2023-03-21T11:41:27;96115.97;;;22.08;33.12
66479;BME280;53294;47.912;13.526;2023-03-21T11:43:56;96107.06;;;21.80;34.59
66479;BME280;53294;47.912;13.526;2023-03-21T11:46:26;96105.34;;;21.19;35.95
66479;BME280;53294;47.912;13.526;2023-03-21T11:48:54;96101.53;;;21.50;36.87
66479;BME280;53294;47.912;13.526;2023-03-21T11:57:28;96090.19;;;22.76;33.45
66479;BME280;53294;47.912;13.526;2023-03-21T12:00:03;96084.16;;;22.60;34.40
66479;BME280;53294;47.912;13.526;2023-03-21T12:05:18;96072.72;;;22.51;33.08
66479;BME280;53294;47.912;13.526;2023-03-21T12:08:21;96063.78;;;22.20;34.61
66479;BME280;53294;47.912;13.526;2023-03-21T12:11:02;96048.09;;;22.92;33.41
66479;BME280;53294;47.912;13.526;2023-03-21T12:21:21;96049.69;;;22.52;34.47
66479;BME280;53294;47.912;13.526;2023-03-21T12:29:14;96021.66;;;23.80;32.93
66479;BME280;53294;47.912;13.526;2023-03-21T12:35:22;96016.41;;;24.74;30.28
66479;BME280;53294;47.912;13.526;2023-03-21T12:41:16;96005.03;;;24.90;29.92
66479;BME280;53294;47.912;13.526;2023-03-21T12:45:59;95996.38;;;24.84;30.93
66479;BME280;53294;47.912;13.526;2023-03-21T12:48:37;95993.97;;;25.51;28.12
66479;BME280;53294;47.912;13.526;2023-03-21T12:51:11;95997.19;;;25.06;29.19
66479;BME280;53294;47.912;13.526;2023-03-21T12:56:44;95984.22;;;25.07;29.79
66479;BME280;53294;47.912;13.526;2023-03-21T12:59:24;95978.91;;;25.77;30.37
66479;BME280;53294;47.912;13.526;2023-03-21T13:01:59;95973.53;;;25.52;30.21
66479;BME280;53294;47.912;13.526;2023-03-21T13:05:00;95986.16;;;24.38;27.13
66479;BME280;53294;47.912;13.526;2023-03-21T13:07:34;95983.81;;;22.79;32.46
66479;BME280;53294;47.912;13.526;2023-03-21T13:10:12;95992.69;;;23.13;30.48
66479;BME280;53294;47.912;13.526;2023-03-21T13:13:01;95987.56;;;22.56;31.57
66479;BME280;53294;47.912;13.526;2023-03-21T13:24:01;95977.78;;;20.92;33.67
66479;BME280;53294;47.912;13.526;2023-03-21T13:26:39;95978.03;;;21.07;33.28
66479;BME280;53294;47.912;13.526;2023-03-21T13:29:41;95968.47;;;20.93;33.75
66479;BME280;53294;47.912;13.526;2023-03-21T13:34:42;95971.16;;;20.43;34.39
66479;BME280;53294;47.912;13.526;2023-03-21T13:37:14;95970.78;;;20.91;33.60
66479;BME280;53294;47.912;13.526;2023-03-21T13:39:48;95975.91;;;20.70;34.35
66479;BME280;53294;47.912;13.526;2023-03-21T13:42:22;95964.66;;;20.52;34.32
66479;BME280;53294;47.912;13.526;2023-03-21T13:44:54;95964.13;;;21.19;34.85
66479;BME280;53294;47.912;13.526;2023-03-21T13:55:43;95951.50;;;22.95;32.26
66479;BME280;53294;47.912;13.526;2023-03-21T14:03:47;95941.78;;;21.40;31.47
66479;BME280;53294;47.912;13.526;2023-03-21T14:06:15;95944.94;;;20.85;32.52
66479;BME280;53294;47.912;13.526;2023-03-21T14:08:45;95940.84;;;20.72;33.25
66479;BME280;53294;47.912;13.526;2023-03-21T14:11:16;95942.53;;;20.80;33.97
66479;BME280;53294;47.912;13.526;2023-03-21T14:13:45;95934.13;;;21.49;34.29
66479;BME280;53294;47.912;13.526;2023-03-21T14:16:18;95933.25;;;22.17;33.00
66479;BME280;53294;47.912;13.526;2023-03-21T14:18:52;95932.06;;;22.59;33.05
66479;BME280;53294;47.912;13.526;2023-03-21T14:21:24;95929.16;;;22.93;30.97
66479;BME280;53294;47.912;13.526;2023-03-21T14:24:04;95923.94;;;23.36;31.13
66479;BME280;53294;47.912;13.526;2023-03-21T14:26:35;95919.69;;;23.50;29.62
66479;BME280;53294;47.912;13.526;2023-03-21T14:29:05;95918.94;;;23.53;29.83
66479;BME280;53294;47.912;13.526;2023-03-21T14:31:50;95915.44;;;23.63;29.79
66479;BME280;53294;47.912;13.526;2023-03-21T14:34:17;95916.25;;;23.81;31.10
66479;BME280;53294;47.912;13.526;2023-03-21T14:36:44;95911.66;;;24.18;28.67
66479;BME280;53294;47.912;13.526;2023-03-21T14:39:26;95906.94;;;24.22;30.53
66479;BME280;53294;47.912;13.526;2023-03-21T14:41:55;95897.53;;;24.48;29.70
66479;BME280;53294;47.912;13.526;2023-03-21T14:44:35;95917.69;;;23.43;29.16
66479;BME280;53294;47.912;13.526;2023-03-21T14:47:22;95905.25;;;23.71;29.44
66479;BME280;53294;47.912;13.526;2023-03-21T14:49:49;95903.00;;;23.87;29.29
66479;BME280;53294;47.912;13.526;2023-03-21T14:52:23;95905.28;;;23.81;27.96
66479;BME280;53294;47.912;13.526;2023-03-21T14:54:51;95910.06;;;22.45;31.09
66479;BME280;53294;47.912;13.526;2023-03-21T14:57:21;95907.38;;;21.36;32.99
66479;BME280;53294;47.912;13.526;2023-03-21T14:59:51;95903.16;;;21.11;33.35
66479;BME280;53294;47.912;13.526;2023-03-21T15:02:22;95902.78;;;22.18;31.41
66479;BME280;53294;47.912;13.526;2023-03-21T15:04:53;95901.75;;;22.86;30.99
66479;BME280;53294;47.912;13.526;2023-03-21T15:07:29;95893.19;;;22.94;30.27
66479;BME280;53294;47.912;13.526;2023-03-21T15:10:00;95896.31;;;22.93;30.35